Lake Montcelo, Virginia
Current Conditions -  °F | °C
As of 6:55 AM on Saturday 01 Nov 2014 (Local Time) from KLKU Reporting Station
Broken Clouds Broken Clouds  
Wind Chill: 40°   Ceiling: 12000
Heat Index: 43°   Visibility: 10mi
Dew Point: 37°   Wind: 5mph
Humidity: 81%   Direction: 360°N
Pressure: 29.76"   Gusts: NA
Location:  37.8582°N, 78.2803°W
Report Text: KLKU 011055Z AUTO 36004KT 10SM BKN120 06/03 A2976 RMK AO2
Loading
Personal Weather Stations






























Interactive Weather Map
Tropical Storm Tracking
New forecast layout! Learn more

10-Day Weather Forecast

Advertisements
Track Severe Weather on mobile